createdAt,value
2022-11-13T00:00:01.745Z,100887.19
2022-11-13T00:01:22.249Z,100883.53
2022-11-13T00:02:34.732Z,100884.44
2022-11-13T00:03:48.435Z,100884.38
2022-11-13T00:04:55.579Z,100881.72
2022-11-13T00:06:04.700Z,100879.00
2022-11-13T00:07:08.872Z,100895.91
2022-11-13T00:08:19.327Z,100886.31
2022-11-13T00:09:23.400Z,100884.59
2022-11-13T00:10:27.872Z,100890.28
2022-11-13T00:11:38.012Z,100886.81
2022-11-13T00:12:41.743Z,100887.88
2022-11-13T00:13:46.802Z,100884.22
2022-11-13T00:14:50.292Z,100886.81
2022-11-13T00:16:19.988Z,100878.84
2022-11-13T00:17:28.598Z,100883.97
2022-11-13T00:18:37.265Z,100872.38
2022-11-13T00:19:42.552Z,100869.56
2022-11-13T00:20:51.849Z,100872.28
2022-11-13T00:21:57.460Z,100873.00
2022-11-13T00:23:13.264Z,100870.28
2022-11-13T00:24:39.335Z,100878.06
2022-11-13T00:25:50.143Z,100871.03
2022-11-13T00:26:53.992Z,100876.19
2022-11-13T00:27:57.446Z,100874.38
2022-11-13T00:29:06.416Z,100871.66
2022-11-13T00:30:16.356Z,100875.22
2022-11-13T00:31:22.908Z,100872.44
2022-11-13T00:32:27.320Z,100869.78
2022-11-13T00:34:01.976Z,100865.28
2022-11-13T00:34:55.189Z,100857.31
2022-11-13T00:36:15.973Z,100865.34
2022-11-13T00:37:20.841Z,100859.31
2022-11-13T00:38:24.862Z,100866.34
2022-11-13T00:39:28.890Z,100868.19
2022-11-13T00:40:32.734Z,100860.25
2022-11-13T00:41:36.518Z,100861.03
2022-11-13T00:42:40.812Z,100861.91
2022-11-13T00:43:44.647Z,100855.59
2022-11-13T00:44:48.237Z,100863.75
2022-11-13T00:45:53.719Z,100863.69
2022-11-13T00:46:59.938Z,100865.34
2022-11-13T00:48:03.829Z,100859.16
2022-11-13T00:49:07.510Z,100861.81
2022-11-13T00:50:14.740Z,100867.13
2022-11-13T00:51:19.817Z,100863.00
2022-11-13T00:52:23.416Z,100865.78
2022-11-13T00:53:27.421Z,100870.28
2022-11-13T00:54:35.903Z,100864.97
2022-11-13T00:55:44.985Z,100866.09
2022-11-13T00:56:51.452Z,100859.13
2022-11-13T00:57:55.352Z,100860.91
2022-11-13T00:58:59.727Z,100852.88
2022-11-13T01:00:04.835Z,100847.56
2022-11-13T01:01:16.540Z,100855.50
2022-11-13T01:02:20.469Z,100849.38
2022-11-13T01:03:24.172Z,100851.13
2022-11-13T01:04:32.303Z,100849.31
2022-11-13T01:05:54.688Z,100854.66
2022-11-13T01:06:59.051Z,100844.34
2022-11-13T01:08:05.999Z,100843.50
2022-11-13T01:09:10.316Z,100851.44
2022-11-13T01:10:14.495Z,100840.06
2022-11-13T01:11:23.420Z,100842.88
2022-11-13T01:12:27.421Z,100846.59
2022-11-13T01:13:31.654Z,100841.16
2022-11-13T01:14:36.004Z,100853.38
2022-11-13T01:15:47.535Z,100836.56
2022-11-13T01:16:54.884Z,100846.22
2022-11-13T01:18:01.315Z,100840.84
2022-11-13T01:19:05.022Z,100846.13
2022-11-13T01:20:11.777Z,100849.75
2022-11-13T01:21:22.257Z,100844.44
2022-11-13T01:22:25.976Z,100849.69
2022-11-13T01:23:29.663Z,100840.00
2022-11-13T01:24:33.435Z,100846.16
2022-11-13T01:25:37.643Z,100839.94
2022-11-13T01:26:41.224Z,100844.34
2022-11-13T01:27:45.259Z,100840.69
2022-11-13T01:28:51.207Z,100853.88
2022-11-13T01:29:54.838Z,100839.03
2022-11-13T01:30:58.398Z,100843.47
2022-11-13T01:32:02.435Z,100845.19
2022-11-13T01:33:11.924Z,100834.69
2022-11-13T01:34:19.756Z,100840.94
2022-11-13T01:35:24.519Z,100841.78
2022-11-13T01:36:32.304Z,100842.00
2022-11-13T01:37:41.124Z,100841.06
2022-11-13T01:38:46.002Z,100835.88
2022-11-13T01:39:50.191Z,100843.72
2022-11-13T01:40:54.910Z,100832.28
2022-11-13T01:41:59.469Z,100838.59
2022-11-13T01:43:25.062Z,100838.59
2022-11-13T01:44:51.366Z,100823.53
2022-11-13T01:46:05.998Z,100835.06
2022-11-13T01:47:11.546Z,100833.22
2022-11-13T01:48:16.274Z,100831.38
2022-11-13T01:49:38.062Z,100830.47
2022-11-13T01:50:41.632Z,100826.94
2022-11-13T01:52:12.547Z,100825.19
2022-11-13T01:53:21.323Z,100828.78
2022-11-13T01:56:31.505Z,100825.25
2022-11-13T01:57:47.680Z,100819.16
2022-11-13T01:59:36.228Z,100825.31
2022-11-13T02:00:41.742Z,100825.41
2022-11-13T02:01:45.355Z,100821.03
2022-11-13T02:02:49.932Z,100824.47
2022-11-13T02:04:03.603Z,100827.97
2022-11-13T02:05:11.359Z,100814.00
2022-11-13T02:06:20.043Z,100819.28
2022-11-13T02:07:28.676Z,100827.13
2022-11-13T02:08:36.854Z,100815.59
2022-11-13T02:10:11.476Z,100813.69
2022-11-13T02:11:29.096Z,100817.19
2022-11-13T02:12:49.412Z,100812.69
2022-11-13T02:14:53.152Z,100808.19
2022-11-13T02:15:41.779Z,100812.69
2022-11-13T02:17:02.657Z,100809.91
2022-11-13T02:18:15.906Z,100809.97
2022-11-13T02:19:53.158Z,100809.00
2022-11-13T02:21:46.936Z,100808.25
2022-11-13T02:23:19.114Z,100811.75
2022-11-13T02:24:45.025Z,100809.97
2022-11-13T02:25:58.575Z,100810.75
2022-11-13T02:27:22.082Z,100812.56
2022-11-13T02:28:36.750Z,100809.00
2022-11-13T02:29:40.735Z,100816.03
2022-11-13T02:30:46.511Z,100815.97
2022-11-13T02:31:52.295Z,100810.66
2022-11-13T02:32:59.901Z,100807.13
2022-11-13T02:34:06.183Z,100815.16
2022-11-13T02:35:15.298Z,100811.69
2022-11-13T02:36:27.681Z,100814.16
2022-11-13T02:37:42.957Z,100809.00
2022-11-13T02:38:54.492Z,100811.59
2022-11-13T02:40:02.350Z,100815.03
2022-11-13T02:41:09.182Z,100818.59
2022-11-13T02:42:23.301Z,100818.47
2022-11-13T02:43:29.626Z,100816.63
2022-11-13T02:44:34.197Z,100816.81
2022-11-13T02:45:41.712Z,100812.31
2022-11-13T02:46:45.283Z,100807.78
2022-11-13T02:47:52.708Z,100811.19
2022-11-13T02:48:57.091Z,100806.69
2022-11-13T02:50:00.672Z,100810.19
2022-11-13T02:51:05.153Z,100802.25
2022-11-13T02:52:16.223Z,100801.38
2022-11-13T02:53:19.823Z,100807.53
2022-11-13T02:54:23.422Z,100812.84
2022-11-13T02:55:27.232Z,100803.97
2022-11-13T02:56:30.790Z,100807.50
2022-11-13T02:57:34.418Z,100804.72
2022-11-13T02:58:37.966Z,100800.41
2022-11-13T02:59:42.526Z,100804.84
2022-11-13T03:02:21.239Z,100810.19
2022-11-13T03:03:56.684Z,100810.75
2022-11-13T03:06:18.471Z,100802.09
2022-11-13T03:07:22.842Z,100805.66
2022-11-13T03:08:28.647Z,100806.69
2022-11-13T03:09:33.203Z,100808.41
2022-11-13T03:10:38.181Z,100809.28
2022-11-13T03:11:48.006Z,100811.13
2022-11-13T03:12:51.695Z,100801.41
2022-11-13T03:13:55.303Z,100816.38
2022-11-13T03:14:59.911Z,100813.63
2022-11-13T03:16:15.055Z,100813.63
2022-11-13T03:17:20.479Z,100813.69
2022-11-13T03:18:26.599Z,100818.84
2022-11-13T03:19:32.214Z,100812.81
2022-11-13T03:20:42.106Z,100818.91
2022-11-13T03:21:46.321Z,100822.38
2022-11-13T03:22:50.427Z,100811.75
2022-11-13T03:23:55.162Z,100814.41
2022-11-13T03:24:59.255Z,100821.44
2022-11-13T03:26:13.767Z,100819.72
2022-11-13T03:27:17.290Z,100818.72
2022-11-13T03:28:20.902Z,100820.47
2022-11-13T03:29:27.668Z,100822.13
2022-11-13T03:30:33.862Z,100823.91
2022-11-13T03:31:38.000Z,100826.50
2022-11-13T03:32:41.966Z,100826.34
2022-11-13T03:33:48.977Z,100834.53
2022-11-13T03:34:53.554Z,100830.81
2022-11-13T03:35:57.596Z,100834.31
2022-11-13T03:37:07.283Z,100830.06
2022-11-13T03:38:12.006Z,100837.84
2022-11-13T03:39:23.019Z,100832.66
2022-11-13T03:40:36.849Z,100837.72
2022-11-13T03:41:44.707Z,100832.28
2022-11-13T03:42:50.420Z,100829.59
2022-11-13T03:43:54.911Z,100839.34
2022-11-13T03:45:03.250Z,100837.53
2022-11-13T03:46:06.943Z,100839.38
2022-11-13T03:47:24.731Z,100836.78
2022-11-13T03:48:30.518Z,100836.09
2022-11-13T03:49:35.626Z,100834.44
2022-11-13T03:50:44.280Z,100837.97
2022-11-13T03:51:49.096Z,100835.38
2022-11-13T03:52:53.684Z,100830.94
2022-11-13T03:54:00.548Z,100828.22
2022-11-13T03:55:06.082Z,100828.22
2022-11-13T03:56:11.756Z,100832.78
2022-11-13T03:57:17.297Z,100833.66
2022-11-13T03:58:21.319Z,100834.38
2022-11-13T03:59:28.064Z,100827.34
2022-11-13T04:00:32.896Z,100825.78
2022-11-13T04:01:36.688Z,100824.00
2022-11-13T04:02:43.033Z,100829.47
2022-11-13T04:03:48.640Z,100826.09
2022-11-13T04:04:52.885Z,100828.72
2022-11-13T04:06:00.430Z,100831.41
2022-11-13T04:07:07.481Z,100826.97
2022-11-13T04:08:14.366Z,100829.69
2022-11-13T04:09:18.235Z,100826.97
2022-11-13T04:10:22.307Z,100826.09
2022-11-13T04:11:35.385Z,100836.63
2022-11-13T04:12:42.100Z,100831.38
2022-11-13T04:13:47.829Z,100825.19
2022-11-13T04:14:51.419Z,100818.22
2022-11-13T04:15:57.752Z,100819.22
2022-11-13T04:17:02.145Z,100825.47
2022-11-13T04:18:10.052Z,100831.63
2022-11-13T04:19:13.680Z,100827.44
2022-11-13T04:20:18.283Z,100829.22
2022-11-13T04:21:23.386Z,100834.75
2022-11-13T04:22:28.497Z,100828.44
2022-11-13T04:23:33.964Z,100832.91
2022-11-13T04:24:38.871Z,100834.88
2022-11-13T04:25:43.181Z,100837.47
2022-11-13T04:26:49.223Z,100837.53
2022-11-13T04:27:58.060Z,100837.47
2022-11-13T04:29:05.115Z,100838.34
2022-11-13T04:30:12.175Z,100836.78
2022-11-13T04:31:19.585Z,100837.56
2022-11-13T04:32:26.738Z,100834.19
2022-11-13T04:33:30.579Z,100831.47
2022-11-13T04:34:35.046Z,100832.41
2022-11-13T04:35:43.642Z,100835.13
2022-11-13T04:36:49.236Z,100828.03
2022-11-13T04:38:00.403Z,100834.19
2022-11-13T04:39:05.675Z,100835.22
2022-11-13T04:40:10.602Z,100836.09
2022-11-13T04:41:32.867Z,100826.41
2022-11-13T04:42:51.829Z,100835.19
2022-11-13T04:43:55.467Z,100831.06
2022-11-13T04:44:58.921Z,100826.78
2022-11-13T04:46:02.417Z,100834.66
2022-11-13T04:47:06.064Z,100830.34
2022-11-13T04:48:09.859Z,100830.28
2022-11-13T04:49:13.585Z,100840.03
2022-11-13T04:50:19.679Z,100828.56
2022-11-13T04:51:23.652Z,100824.06
2022-11-13T04:52:28.806Z,100825.00
2022-11-13T04:53:36.534Z,100833.97
2022-11-13T04:54:41.535Z,100824.25
2022-11-13T04:55:49.059Z,100819.06
2022-11-13T04:57:14.565Z,100827.00
2022-11-13T04:58:21.023Z,100831.38
2022-11-13T04:59:27.715Z,100822.63
2022-11-13T05:00:33.321Z,100827.81
2022-11-13T05:01:37.508Z,100824.25
2022-11-13T05:02:41.137Z,100816.25
2022-11-13T05:03:45.320Z,100818.88
2022-11-13T05:04:49.160Z,100821.41
2022-11-13T05:05:53.792Z,100822.22
2022-11-13T05:06:59.919Z,100815.19
2022-11-13T05:08:05.019Z,100821.41
2022-11-13T05:09:12.333Z,100822.22
2022-11-13T05:10:23.408Z,100808.16
2022-11-13T05:11:39.241Z,100821.41
2022-11-13T05:12:48.050Z,100821.25
2022-11-13T05:14:03.094Z,100824.84
2022-11-13T05:15:09.614Z,100822.09
2022-11-13T05:16:15.973Z,100829.91
2022-11-13T05:17:22.160Z,100820.38
2022-11-13T05:18:27.432Z,100824.00
2022-11-13T05:19:34.729Z,100820.53
2022-11-13T05:20:40.792Z,100820.63
2022-11-13T05:21:44.871Z,100819.69
2022-11-13T05:22:48.595Z,100818.06
2022-11-13T05:23:55.040Z,100818.03
2022-11-13T05:25:04.936Z,100820.69
2022-11-13T05:26:16.672Z,100827.16
2022-11-13T05:27:20.673Z,100820.91
2022-11-13T05:28:28.691Z,100823.66
2022-11-13T05:29:40.934Z,100824.50
2022-11-13T05:31:32.525Z,100823.66
2022-11-13T05:32:24.945Z,100817.47
2022-11-13T05:33:32.684Z,100828.22
2022-11-13T05:34:36.725Z,100827.25
2022-11-13T05:35:51.214Z,100823.00
2022-11-13T05:36:56.372Z,100822.78
2022-11-13T05:38:05.121Z,100821.00
2022-11-13T05:39:12.143Z,100820.97
2022-11-13T05:40:19.202Z,100821.72
2022-11-13T05:41:24.717Z,100817.28
2022-11-13T05:42:32.139Z,100814.56
2022-11-13T05:43:38.646Z,100814.63
2022-11-13T05:44:47.345Z,100817.19
2022-11-13T05:46:21.919Z,100815.41
2022-11-13T05:47:31.857Z,100822.34
2022-11-13T05:48:43.272Z,100823.44
2022-11-13T05:49:55.275Z,100821.63
2022-11-13T05:51:25.354Z,100817.50
2022-11-13T05:52:31.341Z,100817.50
2022-11-13T05:53:38.396Z,100817.75
2022-11-13T05:54:46.187Z,100816.19
2022-11-13T05:56:12.152Z,100819.94
2022-11-13T05:57:19.602Z,100819.06
2022-11-13T05:58:31.140Z,100820.88
2022-11-13T06:00:00.201Z,100821.72
2022-11-13T06:01:24.169Z,100819.47
2022-11-13T06:02:33.603Z,100819.38
2022-11-13T06:03:48.726Z,100814.94
2022-11-13T06:05:00.941Z,100815.72
2022-11-13T06:06:18.729Z,100809.50
2022-11-13T06:07:26.779Z,100812.13
2022-11-13T06:08:33.838Z,100805.94
2022-11-13T06:09:38.868Z,100814.69
2022-11-13T06:10:46.281Z,100812.13
2022-11-13T06:11:54.155Z,100812.00
2022-11-13T06:13:02.639Z,100809.28
2022-11-13T06:14:12.509Z,100815.44
2022-11-13T06:15:20.205Z,100812.72
2022-11-13T06:16:38.943Z,100815.44
2022-11-13T06:17:47.267Z,100814.56
2022-11-13T06:18:54.787Z,100816.50
2022-11-13T06:19:58.731Z,100812.13
2022-11-13T06:21:22.242Z,100809.47
2022-11-13T06:22:28.919Z,100809.50
2022-11-13T06:23:39.471Z,100809.63
2022-11-13T06:24:50.016Z,100809.72
2022-11-13T06:26:05.306Z,100814.22
2022-11-13T06:27:11.953Z,100813.28
2022-11-13T06:28:16.064Z,100817.63
2022-11-13T06:29:21.263Z,100808.00
2022-11-13T06:30:35.452Z,100820.28
2022-11-13T06:31:39.663Z,100814.00
2022-11-13T06:32:46.331Z,100813.13
2022-11-13T06:33:52.257Z,100810.34
2022-11-13T06:34:59.984Z,100820.06
2022-11-13T06:36:17.234Z,100820.00
2022-11-13T06:37:21.672Z,100815.63
2022-11-13T06:38:27.250Z,100817.28
2022-11-13T06:39:33.653Z,100814.75
2022-11-13T06:40:45.706Z,100812.13
2022-11-13T06:41:57.732Z,100820.06
2022-11-13T06:43:12.991Z,100813.84
2022-11-13T06:44:22.420Z,100811.22
2022-11-13T06:45:35.597Z,100814.88
2022-11-13T06:46:50.524Z,100808.78
2022-11-13T06:48:01.467Z,100809.56
2022-11-13T06:49:12.729Z,100819.13
2022-11-13T06:50:26.186Z,100819.94
2022-11-13T06:51:41.822Z,100816.53
2022-11-13T06:52:51.941Z,100808.53
2022-11-13T06:53:58.716Z,100808.41
2022-11-13T06:55:02.595Z,100812.84
2022-11-13T06:56:07.693Z,100814.50
2022-11-13T06:57:12.155Z,100811.75
2022-11-13T06:58:18.373Z,100809.13
2022-11-13T06:59:22.405Z,100817.84
2022-11-13T07:00:36.256Z,100816.94
2022-11-13T07:01:44.515Z,100808.19
2022-11-13T07:02:52.295Z,100802.75
2022-11-13T07:03:58.170Z,100809.91
2022-11-13T07:05:03.078Z,100812.50
2022-11-13T07:06:18.406Z,100811.63
2022-11-13T07:07:26.676Z,100811.53
2022-11-13T07:08:39.118Z,100812.41
2022-11-13T07:11:22.554Z,100806.97
2022-11-13T07:12:33.556Z,100808.69
2022-11-13T07:13:43.411Z,100793.78
2022-11-13T07:14:56.018Z,100797.47
2022-11-13T07:16:19.104Z,100806.56
2022-11-13T07:17:33.101Z,100795.97
2022-11-13T07:18:40.988Z,100798.69
2022-11-13T07:19:51.754Z,100803.25
2022-11-13T07:21:02.914Z,100793.97
2022-11-13T07:22:09.995Z,100804.69
2022-11-13T07:23:15.187Z,100803.69
2022-11-13T07:24:20.255Z,100807.97
2022-11-13T07:25:25.445Z,100800.03
2022-11-13T07:26:32.020Z,100802.47
2022-11-13T07:27:38.412Z,100802.38
2022-11-13T07:28:44.851Z,100794.38
2022-11-13T07:29:50.384Z,100805.75
2022-11-13T07:31:04.064Z,100797.72
2022-11-13T07:32:08.162Z,100800.31
2022-11-13T07:33:14.322Z,100800.16
2022-11-13T07:34:22.028Z,100801.09
2022-11-13T07:35:26.888Z,100792.28
2022-11-13T07:36:33.337Z,100796.66
2022-11-13T07:37:40.414Z,100798.31
2022-11-13T07:38:48.089Z,100795.63
2022-11-13T07:39:52.306Z,100801.72
2022-11-13T07:41:00.101Z,100803.69
2022-11-13T07:42:06.437Z,100802.59
2022-11-13T07:43:13.896Z,100802.88
2022-11-13T07:44:39.933Z,100799.53
2022-11-13T07:45:45.171Z,100804.97
2022-11-13T07:46:50.025Z,100803.97
2022-11-13T07:48:04.031Z,100811.28
2022-11-13T07:49:11.768Z,100810.63
2022-11-13T07:50:15.912Z,100808.00
2022-11-13T07:51:20.748Z,100808.84
2022-11-13T07:52:27.942Z,100807.91
2022-11-13T07:53:33.765Z,100808.88
2022-11-13T07:54:37.386Z,100808.00
2022-11-13T07:55:45.406Z,100808.78
2022-11-13T07:56:59.381Z,100807.03
2022-11-13T07:58:06.046Z,100808.84
2022-11-13T07:59:13.387Z,100802.66
2022-11-13T08:00:20.511Z,100805.34
2022-11-13T08:01:24.850Z,100815.91
2022-11-13T08:02:35.139Z,100814.16
2022-11-13T08:03:49.233Z,100802.59
2022-11-13T08:04:53.503Z,100812.34
2022-11-13T08:06:13.015Z,100811.50
2022-11-13T08:07:16.860Z,100805.31
2022-11-13T08:08:20.924Z,100805.25
2022-11-13T08:09:24.541Z,100806.91
2022-11-13T08:10:29.815Z,100808.63
2022-11-13T08:11:33.656Z,100820.00
2022-11-13T08:12:37.453Z,100813.84
2022-11-13T08:13:41.626Z,100815.78
2022-11-13T08:14:45.229Z,100818.38
2022-11-13T08:15:49.137Z,100812.22
2022-11-13T08:16:52.700Z,100828.03
2022-11-13T08:18:00.045Z,100819.22
2022-11-13T08:19:08.158Z,100810.34
2022-11-13T08:20:13.580Z,100820.97
2022-11-13T08:21:18.994Z,100828.00
2022-11-13T08:22:23.645Z,100824.31
2022-11-13T08:23:27.995Z,100824.47
2022-11-13T08:24:39.297Z,100823.50
2022-11-13T08:25:43.031Z,100825.16
2022-11-13T08:26:48.354Z,100822.47
2022-11-13T08:27:54.769Z,100825.06
2022-11-13T08:28:58.968Z,100823.28
2022-11-13T08:30:06.585Z,100821.56
2022-11-13T08:31:16.905Z,100825.00
2022-11-13T08:32:34.354Z,100826.78
2022-11-13T08:33:41.759Z,100821.50
2022-11-13T08:34:53.114Z,100825.81
2022-11-13T08:36:15.578Z,100821.50
2022-11-13T08:37:20.975Z,100826.03
2022-11-13T08:38:32.152Z,100828.69
2022-11-13T08:39:42.082Z,100822.47
2022-11-13T08:40:50.991Z,100823.44
2022-11-13T08:42:29.116Z,100827.03
2022-11-13T08:43:43.236Z,100820.00
2022-11-13T08:44:50.437Z,100822.72
2022-11-13T08:45:56.559Z,100821.72
2022-11-13T08:47:11.607Z,100821.72
2022-11-13T08:48:20.912Z,100828.88
2022-11-13T08:49:30.779Z,100823.44
2022-11-13T08:50:40.207Z,100822.66
2022-11-13T08:51:49.473Z,100819.00
2022-11-13T08:52:57.277Z,100824.53
2022-11-13T08:54:08.263Z,100828.81
2022-11-13T08:55:19.281Z,100823.78
2022-11-13T08:56:24.456Z,100823.09
2022-11-13T08:57:32.477Z,100821.75
2022-11-13T08:58:40.471Z,100823.38
2022-11-13T08:59:48.568Z,100826.81
2022-11-13T09:00:55.361Z,100825.09
2022-11-13T09:02:03.657Z,100833.91
2022-11-13T09:03:18.013Z,100834.75
2022-11-13T09:04:27.709Z,100840.06
2022-11-13T09:05:50.860Z,100824.13
2022-11-13T09:06:57.588Z,100828.44
2022-11-13T09:08:06.535Z,100828.22
2022-11-13T09:09:18.227Z,100831.09
2022-11-13T09:10:26.732Z,100830.06
2022-11-13T09:11:34.119Z,100827.66
2022-11-13T09:12:43.135Z,100839.47
2022-11-13T09:13:53.220Z,100831.75
2022-11-13T09:15:05.721Z,100835.09
2022-11-13T09:16:16.317Z,100839.41
2022-11-13T09:17:26.233Z,100834.19
2022-11-13T09:19:59.489Z,100825.78
2022-11-13T09:21:11.656Z,100832.16
2022-11-13T09:22:18.109Z,100834.63
2022-11-13T09:23:26.307Z,100813.41
2022-11-13T09:24:32.111Z,100824.75
2022-11-13T09:25:38.471Z,100826.44
2022-11-13T09:26:47.713Z,100828.09
2022-11-13T09:28:01.656Z,100821.88
2022-11-13T09:29:06.583Z,100824.91
2022-11-13T09:30:13.042Z,100823.06
2022-11-13T09:31:16.992Z,100818.78
2022-11-13T09:32:24.632Z,100830.16
2022-11-13T09:33:28.405Z,100828.69
2022-11-13T09:34:37.073Z,100820.00
2022-11-13T09:35:42.167Z,100815.41
2022-11-13T09:36:50.291Z,100819.72
2022-11-13T09:37:55.319Z,100822.28
2022-11-13T09:39:03.357Z,100821.28
2022-11-13T09:40:26.102Z,100817.00
2022-11-13T09:41:45.001Z,100822.16
2022-11-13T09:42:50.953Z,100812.28
2022-11-13T09:44:04.023Z,100810.41
2022-11-13T09:45:16.782Z,100808.50
2022-11-13T09:46:38.096Z,100806.56
2022-11-13T09:47:48.926Z,100808.28
2022-11-13T09:49:20.903Z,100805.63
2022-11-13T09:50:34.557Z,100811.06
2022-11-13T09:51:55.010Z,100804.91
2022-11-13T09:53:23.474Z,100808.19
2022-11-13T09:54:37.935Z,100798.53
2022-11-13T09:56:20.297Z,100805.41
2022-11-13T09:57:49.825Z,100806.34
2022-11-13T09:59:22.063Z,100809.78
2022-11-13T10:00:35.683Z,100808.22
2022-11-13T10:02:28.430Z,100803.00
2022-11-13T10:04:05.192Z,100804.78
2022-11-13T10:05:47.237Z,100803.84
2022-11-13T10:07:38.410Z,100797.53
2022-11-13T10:09:24.655Z,100798.63
2022-11-13T10:11:02.736Z,100792.25
2022-11-13T10:12:14.448Z,100795.53
2022-11-13T10:13:31.666Z,100793.75
2022-11-13T10:14:46.539Z,100799.91
2022-11-13T10:16:17.750Z,100798.63
2022-11-13T10:18:32.639Z,100787.69
2022-11-13T10:20:01.487Z,100795.81
2022-11-13T10:21:45.513Z,100795.91
2022-11-13T10:23:18.676Z,100791.25
2022-11-13T10:24:47.078Z,100784.06
2022-11-13T10:25:52.894Z,100787.59
2022-11-13T10:27:00.345Z,100788.44
2022-11-13T10:29:55.445Z,100776.75
2022-11-13T10:31:03.560Z,100777.44
2022-11-13T10:32:23.841Z,100779.91
2022-11-13T10:33:33.169Z,100778.81
2022-11-13T10:34:44.505Z,100779.47
2022-11-13T10:36:26.325Z,100775.81
2022-11-13T10:38:04.873Z,100779.16
2022-11-13T10:39:11.754Z,100775.31
2022-11-13T10:40:31.732Z,100775.19
2022-11-13T10:41:52.524Z,100776.81
2022-11-13T10:43:15.096Z,100772.13
2022-11-13T10:44:31.144Z,100770.34
2022-11-13T10:45:34.717Z,100771.00
2022-11-13T10:46:39.249Z,100769.16
2022-11-13T10:48:07.458Z,100772.59
2022-11-13T10:49:22.464Z,100770.28
2022-11-13T10:50:33.298Z,100773.84
2022-11-13T10:51:37.293Z,100781.66
2022-11-13T10:52:51.822Z,100767.69
2022-11-13T10:54:03.091Z,100766.75
2022-11-13T10:55:24.443Z,100769.28
2022-11-13T10:56:40.386Z,100769.03
2022-11-13T10:58:01.599Z,100775.97
2022-11-13T10:59:22.673Z,100774.94
2022-11-13T11:00:39.479Z,100777.44
2022-11-13T11:01:54.147Z,100776.28
2022-11-13T11:03:02.477Z,100770.13
2022-11-13T11:04:36.222Z,100771.91
2022-11-13T11:06:03.678Z,100771.88
2022-11-13T11:07:20.577Z,100768.28
2022-11-13T11:08:38.931Z,100767.22
2022-11-13T11:09:52.354Z,100760.97
2022-11-13T11:11:37.104Z,100770.41
2022-11-13T11:12:52.777Z,100759.75
2022-11-13T11:14:21.944Z,100765.97
2022-11-13T11:16:07.978Z,100770.72
2022-11-13T11:17:20.249Z,100762.59
2022-11-13T11:18:50.672Z,100763.44
2022-11-13T11:20:41.515Z,100765.25
2022-11-13T11:22:24.380Z,100754.72
2022-11-13T11:23:55.743Z,100755.56
2022-11-13T11:25:40.795Z,100749.31
2022-11-13T11:27:35.439Z,100752.78
2022-11-13T11:29:36.824Z,100745.66
2022-11-13T11:31:05.513Z,100742.75
2022-11-13T11:32:52.783Z,100742.69
2022-11-13T11:34:18.615Z,100749.59
2022-11-13T11:36:23.765Z,100750.72
2022-11-13T11:37:56.341Z,100741.84
2022-11-13T11:39:47.817Z,100748.00
2022-11-13T11:41:15.988Z,100746.03
2022-11-13T11:43:15.391Z,100735.25
2022-11-13T11:45:04.316Z,100731.63
2022-11-13T11:46:18.834Z,100734.28
2022-11-13T11:47:27.633Z,100733.44
2022-11-13T11:48:37.797Z,100732.50
2022-11-13T11:49:47.612Z,100729.97
2022-11-13T11:51:37.609Z,100717.44
2022-11-13T11:53:17.160Z,100717.38
2022-11-13T11:55:13.031Z,100722.81
2022-11-13T11:56:40.194Z,100720.16
2022-11-13T11:58:00.879Z,100721.97
2022-11-13T12:00:07.890Z,100710.19
2022-11-13T12:01:33.690Z,100705.69
2022-11-13T12:03:12.743Z,100704.16
2022-11-13T12:04:42.371Z,100699.00
2022-11-13T12:06:10.832Z,100704.44
2022-11-13T12:07:56.680Z,100703.72
2022-11-13T12:09:13.743Z,100703.03
2022-11-13T12:10:43.394Z,100709.94
2022-11-13T12:12:42.171Z,100706.97
2022-11-13T12:13:58.615Z,100707.63
2022-11-13T12:15:39.584Z,100704.25
2022-11-13T12:17:02.685Z,100702.38
2022-11-13T12:18:37.348Z,100706.50
2022-11-13T12:20:05.147Z,100701.44
2022-11-13T12:21:52.124Z,100696.13
2022-11-13T12:23:17.811Z,100707.75
2022-11-13T12:25:05.056Z,100704.31
2022-11-13T12:26:45.888Z,100696.13
2022-11-13T12:28:15.164Z,100693.38
2022-11-13T12:29:41.022Z,100690.72
2022-11-13T12:31:20.323Z,100690.72
2022-11-13T12:33:00.503Z,100694.28
2022-11-13T12:34:41.039Z,100688.19
2022-11-13T12:35:56.975Z,100682.00
2022-11-13T12:37:47.082Z,100676.91
2022-11-13T12:39:09.323Z,100675.19
2022-11-13T12:42:15.793Z,100669.09
2022-11-13T12:43:54.962Z,100669.16
2022-11-13T12:45:46.396Z,100671.66
2022-11-13T12:47:09.273Z,100671.88
2022-11-13T12:48:39.140Z,100666.03
2022-11-13T12:50:06.061Z,100667.38
2022-11-13T12:51:18.768Z,100668.75
2022-11-13T12:52:26.759Z,100668.91
2022-11-13T12:53:54.009Z,100666.97
2022-11-13T12:55:30.491Z,100660.72
2022-11-13T12:56:42.257Z,100661.66
2022-11-13T12:58:01.200Z,100666.09
2022-11-13T12:59:33.852Z,100661.63
2022-11-13T13:00:52.903Z,100660.69
2022-11-13T13:02:09.463Z,100661.31
2022-11-13T13:03:21.310Z,100655.97
2022-11-13T13:04:46.651Z,100667.44
2022-11-13T13:06:31.068Z,100660.25
2022-11-13T13:08:33.117Z,100656.94
2022-11-13T13:10:24.135Z,100664.97
2022-11-13T13:12:51.502Z,100653.50
2022-11-13T13:15:02.299Z,100661.53
2022-11-13T13:16:10.760Z,100656.16
2022-11-13T13:17:24.065Z,100652.66
2022-11-13T13:18:35.258Z,100661.38
2022-11-13T13:19:42.033Z,100661.38
2022-11-13T13:21:19.730Z,100652.72
2022-11-13T13:22:35.783Z,100649.91
2022-11-13T13:23:47.524Z,100649.84
2022-11-13T13:25:36.429Z,100650.78
2022-11-13T13:26:47.921Z,100653.50
2022-11-13T13:28:06.274Z,100652.38
2022-11-13T13:29:25.218Z,100647.09
2022-11-13T13:30:35.192Z,100648.13
2022-11-13T13:32:20.645Z,100646.16
2022-11-13T13:33:57.850Z,100645.41
2022-11-13T13:35:06.088Z,100644.53
2022-11-13T13:36:44.972Z,100646.25
2022-11-13T13:37:58.591Z,100646.75
2022-11-13T13:39:38.891Z,100650.84
2022-11-13T13:41:02.618Z,100644.53
2022-11-13T13:42:48.351Z,100647.19
2022-11-13T13:44:20.906Z,100654.56
2022-11-13T13:46:16.129Z,100647.69
2022-11-13T13:47:36.203Z,100648.03
2022-11-13T13:48:49.248Z,100639.13
2022-11-13T13:50:00.975Z,100638.34
2022-11-13T13:51:40.403Z,100639.28
2022-11-13T13:52:54.241Z,100631.59
2022-11-13T13:54:08.924Z,100636.81
2022-11-13T13:55:43.761Z,100638.94
2022-11-13T13:56:48.702Z,100639.06
2022-11-13T13:57:54.632Z,100630.97
2022-11-13T13:59:00.088Z,100630.13
2022-11-13T14:00:18.891Z,100634.56
2022-11-13T14:01:36.471Z,100627.84
2022-11-13T14:02:56.568Z,100634.91
2022-11-13T14:04:20.594Z,100633.81
2022-11-13T14:05:32.642Z,100627.84
2022-11-13T14:06:36.793Z,100634.00
2022-11-13T14:07:47.431Z,100629.59
2022-11-13T14:08:51.163Z,100629.44
2022-11-13T14:10:13.164Z,100631.16
2022-11-13T14:11:21.184Z,100622.22
2022-11-13T14:12:25.247Z,100633.03